createdAt,value
2023-01-08T00:00:41.722Z,92.00
2023-01-08T00:03:11.200Z,91.90
2023-01-08T00:05:40.405Z,92.20
2023-01-08T00:08:11.119Z,92.10
2023-01-08T00:10:40.981Z,92.30
2023-01-08T00:13:10.541Z,92.20
2023-01-08T00:15:39.810Z,92.40
2023-01-08T00:18:09.042Z,92.40
2023-01-08T00:20:38.258Z,92.40
2023-01-08T00:23:07.429Z,92.60
2023-01-08T00:25:36.576Z,92.40
2023-01-08T00:28:05.945Z,92.60
2023-01-08T00:30:35.450Z,92.50
2023-01-08T00:33:04.715Z,92.70
2023-01-08T00:35:34.021Z,92.70
2023-01-08T00:38:03.182Z,92.70
2023-01-08T00:40:32.464Z,92.60
2023-01-08T00:43:01.870Z,92.50
2023-01-08T00:45:31.300Z,92.40
2023-01-08T00:48:01.378Z,92.40
2023-01-08T00:50:30.596Z,92.40
2023-01-08T00:52:59.839Z,92.40
2023-01-08T00:55:29.038Z,92.10
2023-01-08T00:57:59.169Z,91.60
2023-01-08T01:00:29.526Z,91.50
2023-01-08T01:02:58.658Z,91.40
2023-01-08T01:05:27.862Z,91.40
2023-01-08T01:07:57.927Z,91.30
2023-01-08T01:10:27.223Z,91.30
2023-01-08T01:12:56.477Z,90.50
2023-01-08T01:15:26.835Z,90.10
2023-01-08T01:17:56.072Z,89.60
2023-01-08T01:20:25.664Z,89.40
2023-01-08T01:22:54.979Z,89.10
2023-01-08T01:25:24.140Z,88.80
2023-01-08T01:27:53.365Z,88.40
2023-01-08T01:30:22.626Z,88.10
2023-01-08T01:32:52.147Z,88.10
2023-01-08T01:35:21.364Z,87.50
2023-01-08T01:37:50.506Z,87.60
2023-01-08T01:40:19.702Z,87.70
2023-01-08T01:42:48.931Z,87.30
2023-01-08T01:45:28.737Z,87.60
2023-01-08T01:48:15.215Z,87.20
2023-01-08T01:50:55.180Z,86.80
2023-01-08T01:53:28.561Z,85.80
2023-01-08T01:55:59.909Z,85.70
2023-01-08T01:58:34.090Z,86.00
2023-01-08T02:01:12.683Z,85.70
2023-01-08T02:03:42.048Z,84.90
2023-01-08T02:06:34.644Z,85.10
2023-01-08T02:09:42.748Z,84.80
2023-01-08T02:12:40.664Z,84.70
2023-01-08T02:15:38.124Z,84.80
2023-01-08T02:18:26.531Z,85.20
2023-01-08T02:21:15.818Z,84.30
2023-01-08T02:24:12.528Z,84.30
2023-01-08T02:26:42.670Z,82.40
2023-01-08T02:29:23.665Z,81.70
2023-01-08T02:31:53.620Z,82.20
2023-01-08T02:34:22.784Z,82.50
2023-01-08T02:36:58.263Z,82.60
2023-01-08T02:39:27.332Z,83.00
2023-01-08T02:42:36.063Z,83.10
2023-01-08T02:45:48.999Z,83.10
2023-01-08T02:48:30.553Z,83.20
2023-01-08T02:51:25.004Z,82.30
2023-01-08T02:54:09.432Z,81.50
2023-01-08T02:56:47.829Z,81.10
2023-01-08T02:59:19.244Z,80.90
2023-01-08T03:01:49.576Z,81.30
2023-01-08T03:04:24.827Z,81.20
2023-01-08T03:06:54.506Z,80.70
2023-01-08T03:09:23.780Z,79.80
2023-01-08T03:12:14.616Z,80.00
2023-01-08T03:14:57.189Z,80.10
2023-01-08T03:17:39.413Z,80.60
2023-01-08T03:20:18.567Z,80.10
2023-01-08T03:22:53.014Z,79.50
2023-01-08T03:25:25.962Z,79.80
2023-01-08T03:28:04.159Z,79.20
2023-01-08T03:30:34.446Z,79.10
2023-01-08T03:33:07.894Z,79.10
2023-01-08T03:35:42.464Z,79.20
2023-01-08T03:38:40.491Z,78.90
2023-01-08T03:41:19.744Z,78.50
2023-01-08T03:43:49.257Z,78.90
2023-01-08T03:46:37.087Z,78.10
2023-01-08T03:49:09.275Z,77.60
2023-01-08T03:51:48.392Z,77.70
2023-01-08T03:54:25.011Z,77.60
2023-01-08T03:56:54.208Z,76.90
2023-01-08T03:59:27.335Z,76.90
2023-01-08T04:01:56.840Z,77.10
2023-01-08T04:04:28.979Z,76.50
2023-01-08T04:06:58.284Z,76.40
2023-01-08T04:09:32.666Z,76.10
2023-01-08T04:12:03.344Z,75.40
2023-01-08T04:14:35.391Z,75.40
2023-01-08T04:17:04.558Z,75.50
2023-01-08T04:19:35.978Z,76.10
2023-01-08T04:22:08.081Z,75.80
2023-01-08T04:24:37.409Z,75.50
2023-01-08T04:27:07.267Z,74.70
2023-01-08T04:29:36.933Z,74.60
2023-01-08T04:32:08.560Z,74.60
2023-01-08T04:34:39.226Z,74.20
2023-01-08T04:37:17.197Z,74.50
2023-01-08T04:39:46.455Z,74.20
2023-01-08T04:42:20.828Z,73.40
2023-01-08T04:44:50.257Z,73.60
2023-01-08T04:47:19.448Z,73.50
2023-01-08T04:49:48.625Z,72.60
2023-01-08T04:52:17.915Z,72.80
2023-01-08T04:54:47.219Z,72.30
2023-01-08T04:57:16.460Z,71.70
2023-01-08T04:59:45.659Z,71.60
2023-01-08T05:02:16.552Z,71.50
2023-01-08T05:04:45.913Z,70.50
2023-01-08T05:07:15.189Z,70.20
2023-01-08T05:09:44.379Z,69.60
2023-01-08T05:12:13.563Z,70.40
2023-01-08T05:14:42.727Z,70.00
2023-01-08T05:17:12.135Z,70.00
2023-01-08T05:19:41.354Z,70.00
2023-01-08T05:22:10.568Z,70.50
2023-01-08T05:24:39.755Z,71.00
2023-01-08T05:27:09.205Z,71.40
2023-01-08T05:29:38.365Z,70.80
2023-01-08T05:32:16.596Z,70.60
2023-01-08T05:34:47.544Z,69.80
2023-01-08T05:37:16.823Z,71.00
2023-01-08T05:39:46.020Z,70.50
2023-01-08T05:42:15.174Z,69.60
2023-01-08T05:44:46.595Z,69.20
2023-01-08T05:47:15.748Z,70.00
2023-01-08T05:49:45.008Z,69.30
2023-01-08T05:52:14.316Z,68.40
2023-01-08T05:54:43.500Z,69.20
2023-01-08T05:57:12.725Z,68.70
2023-01-08T05:59:42.207Z,68.50
2023-01-08T06:02:11.627Z,68.80
2023-01-08T06:04:40.886Z,68.30
2023-01-08T06:07:10.154Z,68.80
2023-01-08T06:09:39.376Z,68.60
2023-01-08T06:12:08.916Z,68.10
2023-01-08T06:14:38.069Z,68.80
2023-01-08T06:17:07.285Z,67.80
2023-01-08T06:19:36.563Z,67.70
2023-01-08T06:22:05.789Z,67.50
2023-01-08T06:24:35.045Z,67.70
2023-01-08T06:27:04.283Z,67.40
2023-01-08T06:29:33.497Z,67.30
2023-01-08T06:32:02.686Z,67.60
2023-01-08T06:34:31.857Z,67.70
2023-01-08T06:37:00.984Z,67.80
2023-01-08T06:39:30.363Z,67.00
2023-01-08T06:41:59.597Z,66.80
2023-01-08T06:44:31.413Z,66.90
2023-01-08T06:47:00.733Z,67.00
2023-01-08T06:49:29.923Z,66.80
2023-01-08T06:51:59.234Z,66.60
2023-01-08T06:54:28.416Z,66.60
2023-01-08T06:56:57.620Z,66.70
2023-01-08T06:59:26.820Z,66.80
2023-01-08T07:01:56.519Z,67.10
2023-01-08T07:04:25.920Z,66.80
2023-01-08T07:06:55.136Z,66.80
2023-01-08T07:09:24.468Z,66.90
2023-01-08T07:11:53.668Z,67.30
2023-01-08T07:14:23.020Z,67.20
2023-01-08T07:16:52.229Z,67.70
2023-01-08T07:19:21.494Z,67.30
2023-01-08T07:21:50.637Z,66.90
2023-01-08T07:24:19.808Z,66.60
2023-01-08T07:26:49.009Z,66.20
2023-01-08T07:29:18.399Z,66.80
2023-01-08T07:31:47.639Z,66.60
2023-01-08T07:34:16.856Z,66.30
2023-01-08T07:36:46.127Z,66.40
2023-01-08T07:39:15.318Z,66.10
2023-01-08T07:41:45.429Z,66.00
2023-01-08T07:44:15.082Z,65.80
2023-01-08T07:46:44.357Z,66.10
2023-01-08T07:49:13.863Z,66.40
2023-01-08T07:51:43.071Z,67.10
2023-01-08T07:54:12.281Z,66.70
2023-01-08T07:56:41.714Z,67.10
2023-01-08T07:59:11.703Z,66.80
2023-01-08T08:01:40.956Z,66.90
2023-01-08T08:04:15.615Z,67.20
2023-01-08T08:06:45.479Z,67.20
2023-01-08T08:09:14.549Z,67.50
2023-01-08T08:11:43.960Z,66.90
2023-01-08T08:14:13.073Z,67.30
2023-01-08T08:16:42.163Z,67.50
2023-01-08T08:19:13.632Z,67.50
2023-01-08T08:21:42.788Z,67.80
2023-01-08T08:24:11.984Z,68.10
2023-01-08T08:26:41.150Z,68.10
2023-01-08T08:29:10.287Z,68.10
2023-01-08T08:31:39.403Z,68.70
2023-01-08T08:34:09.015Z,68.40
2023-01-08T08:36:38.127Z,68.20
2023-01-08T08:39:07.320Z,67.90
2023-01-08T08:41:36.986Z,67.70
2023-01-08T08:44:06.333Z,67.70
2023-01-08T08:46:35.887Z,67.60
2023-01-08T08:49:05.093Z,67.50
2023-01-08T08:51:34.731Z,67.70
2023-01-08T08:54:03.848Z,67.80
2023-01-08T08:56:33.011Z,67.90
2023-01-08T08:59:02.218Z,67.80
2023-01-08T09:01:32.178Z,67.80
2023-01-08T09:04:01.396Z,67.90
2023-01-08T09:06:30.627Z,67.60
2023-01-08T09:09:00.672Z,67.60
2023-01-08T09:11:30.031Z,67.00
2023-01-08T09:13:59.248Z,67.10
2023-01-08T09:16:28.484Z,67.60
2023-01-08T09:18:58.319Z,67.40
2023-01-08T09:21:27.528Z,67.40
2023-01-08T09:23:56.674Z,67.70
2023-01-08T09:26:25.911Z,67.70
2023-01-08T09:28:56.083Z,68.10
2023-01-08T09:31:25.705Z,68.10
2023-01-08T09:33:55.154Z,68.30
2023-01-08T09:36:24.322Z,68.50
2023-01-08T09:38:53.682Z,68.40
2023-01-08T09:41:36.256Z,68.80
2023-01-08T09:44:08.889Z,68.50
2023-01-08T09:46:38.828Z,68.50
2023-01-08T09:49:17.798Z,68.50
2023-01-08T09:51:47.022Z,68.60
2023-01-08T09:54:19.286Z,68.40
2023-01-08T09:56:48.495Z,68.90
2023-01-08T09:59:21.163Z,68.80
2023-01-08T10:01:50.994Z,68.80
2023-01-08T10:04:26.583Z,68.80
2023-01-08T10:07:34.344Z,69.00
2023-01-08T10:10:03.877Z,69.30
2023-01-08T10:12:38.171Z,69.60
2023-01-08T10:15:14.822Z,69.60
2023-01-08T10:18:07.023Z,70.00
2023-01-08T10:20:36.585Z,70.30
2023-01-08T10:23:19.557Z,70.50
2023-01-08T10:26:03.232Z,70.60
2023-01-08T10:28:39.093Z,70.90
2023-01-08T10:31:16.917Z,70.90
2023-01-08T10:33:51.382Z,70.80
2023-01-08T10:36:28.581Z,71.10
2023-01-08T10:39:03.388Z,71.30
2023-01-08T10:41:38.546Z,71.10
2023-01-08T10:44:17.713Z,71.30
2023-01-08T10:46:51.719Z,71.30
2023-01-08T10:49:26.244Z,71.70
2023-01-08T10:51:57.435Z,71.80
2023-01-08T10:54:41.428Z,71.80
2023-01-08T10:57:30.938Z,71.90
2023-01-08T11:00:00.624Z,72.00
2023-01-08T11:02:40.963Z,72.30
2023-01-08T11:05:12.280Z,72.20
2023-01-08T11:07:42.822Z,72.40
2023-01-08T11:10:27.647Z,72.50
2023-01-08T11:13:05.330Z,73.40
2023-01-08T11:15:40.109Z,73.00
2023-01-08T11:18:28.358Z,72.80
2023-01-08T11:21:20.249Z,73.00
2023-01-08T11:24:02.886Z,73.00
2023-01-08T11:26:33.567Z,73.20
2023-01-08T11:29:19.741Z,73.40
2023-01-08T11:32:04.443Z,73.40
2023-01-08T11:34:40.678Z,73.40
2023-01-08T11:37:25.562Z,73.50
2023-01-08T11:39:57.044Z,73.60
2023-01-08T11:43:05.299Z,73.40
2023-01-08T11:46:09.167Z,73.50
2023-01-08T11:48:57.689Z,73.60
2023-01-08T11:52:08.331Z,73.60
2023-01-08T11:55:16.487Z,73.70
2023-01-08T11:58:41.665Z,74.50
2023-01-08T12:01:49.830Z,73.90
2023-01-08T12:04:43.142Z,74.30
2023-01-08T12:07:23.348Z,74.40
2023-01-08T12:10:35.731Z,74.30
2023-01-08T12:13:40.465Z,74.40
2023-01-08T12:16:46.248Z,74.50
2023-01-08T12:19:26.841Z,74.60
2023-01-08T12:22:51.394Z,74.70
2023-01-08T12:25:32.429Z,74.70
2023-01-08T12:28:11.459Z,75.00
2023-01-08T12:31:00.693Z,75.20
2023-01-08T12:33:52.630Z,75.20
2023-01-08T12:36:47.258Z,75.30
2023-01-08T12:39:35.173Z,75.50
2023-01-08T12:42:25.417Z,75.40
2023-01-08T12:44:58.491Z,75.50
2023-01-08T12:47:35.299Z,75.60
2023-01-08T12:50:19.645Z,75.70
2023-01-08T12:53:31.546Z,76.00
2023-01-08T12:56:34.467Z,76.10
2023-01-08T12:59:07.551Z,76.50
2023-01-08T13:02:27.647Z,76.50
2023-01-08T13:04:57.012Z,76.40
2023-01-08T13:07:33.817Z,76.50
2023-01-08T13:10:20.562Z,76.50
2023-01-08T13:12:56.066Z,76.50
2023-01-08T13:15:28.909Z,76.90
2023-01-08T13:18:06.980Z,76.70
2023-01-08T13:20:37.162Z,77.10
2023-01-08T13:23:07.808Z,76.80
2023-01-08T13:25:39.933Z,76.80
2023-01-08T13:28:28.489Z,76.90
2023-01-08T13:31:29.056Z,76.80
2023-01-08T13:33:58.435Z,77.10
2023-01-08T13:36:30.673Z,77.10
2023-01-08T13:39:24.572Z,77.10
2023-01-08T13:42:03.775Z,76.90
2023-01-08T13:44:43.465Z,76.90
2023-01-08T13:47:34.909Z,77.20
2023-01-08T13:50:23.007Z,77.10
2023-01-08T13:53:04.500Z,77.60
2023-01-08T13:55:41.365Z,77.10
2023-01-08T13:58:50.599Z,77.20
2023-01-08T14:01:21.473Z,77.20
2023-01-08T14:03:51.101Z,77.50
2023-01-08T14:06:23.310Z,77.70
2023-01-08T14:09:00.879Z,77.40
2023-01-08T14:11:48.691Z,77.60
2023-01-08T14:14:22.702Z,77.70
2023-01-08T14:16:54.357Z,77.80
2023-01-08T14:19:26.993Z,77.80
2023-01-08T14:22:05.232Z,77.90
2023-01-08T14:24:35.138Z,78.00
2023-01-08T14:27:04.409Z,78.00
2023-01-08T14:29:35.588Z,78.00
2023-01-08T14:32:05.085Z,78.50
2023-01-08T14:34:40.411Z,78.30
2023-01-08T14:37:15.394Z,78.30
2023-01-08T14:39:47.069Z,78.40
2023-01-08T14:42:54.489Z,78.40
2023-01-08T14:45:33.362Z,78.40
2023-01-08T14:48:19.126Z,78.60
2023-01-08T14:51:07.200Z,78.70
2023-01-08T14:53:48.379Z,78.80
2023-01-08T14:56:25.110Z,78.80
2023-01-08T14:58:56.448Z,79.00
2023-01-08T15:01:32.241Z,78.90
2023-01-08T15:04:18.166Z,78.90
2023-01-08T15:06:48.263Z,79.00
2023-01-08T15:09:35.334Z,79.00
2023-01-08T15:12:24.102Z,79.20
2023-01-08T15:14:56.022Z,79.20
2023-01-08T15:17:29.981Z,79.30
2023-01-08T15:20:01.631Z,79.30
2023-01-08T15:22:33.213Z,79.40
2023-01-08T15:25:08.791Z,79.30
2023-01-08T15:27:38.696Z,79.30
2023-01-08T15:30:10.220Z,79.40
2023-01-08T15:32:40.692Z,79.50
2023-01-08T15:35:20.383Z,79.80
2023-01-08T15:37:49.645Z,79.80
2023-01-08T15:40:18.824Z,80.10
2023-01-08T15:43:06.432Z,79.90
2023-01-08T15:45:35.747Z,79.90
2023-01-08T15:48:06.033Z,80.00
2023-01-08T15:50:39.714Z,80.30
2023-01-08T15:53:23.194Z,80.60
2023-01-08T15:55:53.471Z,80.70
2023-01-08T15:58:23.953Z,80.80
2023-01-08T16:00:53.113Z,81.20
2023-01-08T16:03:23.742Z,81.20
2023-01-08T16:05:52.983Z,81.30
2023-01-08T16:08:22.129Z,81.50
2023-01-08T16:10:57.417Z,81.60
2023-01-08T16:13:26.786Z,81.90
2023-01-08T16:15:56.832Z,82.00
2023-01-08T16:18:26.064Z,82.10
2023-01-08T16:21:02.436Z,82.30
2023-01-08T16:23:32.440Z,82.40
2023-01-08T16:26:01.625Z,82.80
2023-01-08T16:28:30.821Z,82.90
2023-01-08T16:31:00.105Z,83.00
2023-01-08T16:33:29.661Z,83.20
2023-01-08T16:36:09.410Z,83.80
2023-01-08T16:38:39.475Z,83.90
2023-01-08T16:41:08.709Z,83.90
2023-01-08T16:43:43.933Z,83.90
2023-01-08T16:46:19.017Z,84.20
2023-01-08T16:48:49.511Z,84.30
2023-01-08T16:51:18.906Z,84.40
2023-01-08T16:53:48.520Z,84.50
2023-01-08T16:56:17.733Z,84.70
2023-01-08T16:58:50.896Z,84.80
2023-01-08T17:01:20.169Z,85.10
2023-01-08T17:03:52.360Z,85.10
2023-01-08T17:06:21.489Z,85.10
2023-01-08T17:08:50.646Z,85.20
2023-01-08T17:11:22.970Z,85.40
2023-01-08T17:13:52.162Z,85.40
2023-01-08T17:16:22.183Z,85.60
2023-01-08T17:18:51.410Z,85.60
2023-01-08T17:21:21.675Z,85.80
2023-01-08T17:23:50.978Z,86.00
2023-01-08T17:26:20.165Z,86.10
2023-01-08T17:28:49.707Z,86.30
2023-01-08T17:31:21.468Z,86.40
2023-01-08T17:33:51.891Z,86.50
2023-01-08T17:36:26.939Z,86.60
2023-01-08T17:38:58.143Z,86.80
2023-01-08T17:41:46.859Z,87.10
2023-01-08T17:44:16.040Z,87.00
2023-01-08T17:46:48.786Z,87.20
2023-01-08T17:49:19.196Z,87.50
2023-01-08T17:51:48.360Z,87.30
2023-01-08T17:54:20.019Z,87.50
2023-01-08T17:56:49.976Z,87.50
2023-01-08T17:59:21.690Z,87.20
2023-01-08T18:01:54.337Z,87.10
2023-01-08T18:04:23.516Z,87.10
2023-01-08T18:06:52.637Z,86.80
2023-01-08T18:09:22.622Z,86.60
2023-01-08T18:11:51.741Z,86.60
2023-01-08T18:14:21.953Z,86.60
2023-01-08T18:16:51.500Z,86.50
2023-01-08T18:19:21.299Z,86.30
2023-01-08T18:21:50.723Z,86.50
2023-01-08T18:24:20.013Z,87.10
2023-01-08T18:26:50.939Z,86.50
2023-01-08T18:29:20.063Z,86.60
2023-01-08T18:31:49.200Z,86.40
2023-01-08T18:34:18.329Z,86.60
2023-01-08T18:36:47.680Z,86.60
2023-01-08T18:39:16.849Z,86.70
2023-01-08T18:42:04.409Z,86.60
2023-01-08T18:44:33.564Z,86.60
2023-01-08T18:47:02.758Z,86.20
2023-01-08T18:49:31.814Z,86.70
2023-01-08T18:52:00.951Z,86.50
2023-01-08T18:54:30.370Z,86.30
2023-01-08T18:56:59.431Z,86.40
2023-01-08T18:59:28.865Z,86.30
2023-01-08T19:01:59.292Z,86.40
2023-01-08T19:04:28.489Z,86.40
2023-01-08T19:06:57.669Z,86.50
2023-01-08T19:09:26.997Z,86.60
2023-01-08T19:11:56.178Z,86.60
2023-01-08T19:14:25.395Z,86.70
2023-01-08T19:16:54.640Z,87.10
2023-01-08T19:19:24.007Z,87.00
2023-01-08T19:21:53.370Z,87.10
2023-01-08T19:24:22.585Z,87.20
2023-01-08T19:26:52.096Z,87.30
2023-01-08T19:29:21.454Z,87.30
2023-01-08T19:31:50.793Z,87.40
2023-01-08T19:34:20.273Z,87.40
2023-01-08T19:36:49.787Z,87.60
2023-01-08T19:39:19.040Z,87.70
2023-01-08T19:42:06.215Z,87.90
2023-01-08T19:44:35.452Z,87.90
2023-01-08T19:47:04.610Z,87.90
2023-01-08T19:49:33.856Z,87.90
2023-01-08T19:52:03.238Z,87.90
2023-01-08T19:54:32.570Z,87.90
2023-01-08T19:57:01.803Z,88.10
2023-01-08T19:59:31.051Z,88.20
2023-01-08T20:02:00.391Z,88.40
2023-01-08T20:04:31.379Z,88.30
2023-01-08T20:07:01.887Z,88.20
2023-01-08T20:09:32.453Z,88.30
2023-01-08T20:12:02.264Z,88.30
2023-01-08T20:14:31.527Z,88.30
2023-01-08T20:17:00.818Z,88.40
2023-01-08T20:19:30.138Z,88.50
2023-01-08T20:22:01.134Z,89.10
2023-01-08T20:24:31.163Z,88.30
2023-01-08T20:27:00.330Z,88.30
2023-01-08T20:29:30.007Z,88.40
2023-01-08T20:32:00.372Z,88.40
2023-01-08T20:34:30.081Z,88.60
2023-01-08T20:36:59.874Z,88.70
2023-01-08T20:39:29.228Z,88.80
2023-01-08T20:42:04.321Z,88.80
2023-01-08T20:44:35.052Z,88.90
2023-01-08T20:47:04.351Z,89.00
2023-01-08T20:49:33.718Z,89.10
2023-01-08T20:52:03.183Z,89.00
2023-01-08T20:54:32.430Z,89.00
2023-01-08T20:57:02.750Z,89.20
2023-01-08T20:59:32.267Z,89.30
2023-01-08T21:02:02.232Z,89.50
2023-01-08T21:04:31.505Z,89.50
2023-01-08T21:07:01.236Z,89.50
2023-01-08T21:09:30.415Z,89.60
2023-01-08T21:11:59.780Z,89.60
2023-01-08T21:14:29.001Z,89.60
2023-01-08T21:16:58.244Z,89.60
2023-01-08T21:19:27.450Z,89.80
2023-01-08T21:21:56.817Z,89.80
2023-01-08T21:24:25.969Z,90.00
2023-01-08T21:26:55.174Z,90.00
2023-01-08T21:29:24.551Z,90.00
2023-01-08T21:31:53.808Z,89.80
2023-01-08T21:34:23.107Z,89.80
2023-01-08T21:36:52.265Z,89.70
2023-01-08T21:39:21.640Z,89.70
2023-01-08T21:42:09.181Z,89.50
2023-01-08T21:44:56.707Z,89.50
2023-01-08T21:47:26.004Z,89.50
2023-01-08T21:49:55.462Z,89.40
2023-01-08T21:52:43.075Z,89.50
2023-01-08T21:55:12.339Z,89.60
2023-01-08T21:57:41.959Z,89.50
2023-01-08T22:00:13.529Z,89.60
2023-01-08T22:02:43.119Z,89.80
2023-01-08T22:05:12.692Z,90.00
2023-01-08T22:07:41.858Z,90.00
2023-01-08T22:10:12.110Z,90.00
2023-01-08T22:12:42.622Z,89.90
2023-01-08T22:15:12.377Z,90.00
2023-01-08T22:17:41.497Z,90.00
2023-01-08T22:20:11.960Z,90.00
2023-01-08T22:22:42.245Z,90.00
2023-01-08T22:25:11.468Z,90.00
2023-01-08T22:27:40.604Z,90.10
2023-01-08T22:30:10.943Z,90.00
2023-01-08T22:32:40.040Z,90.10
2023-01-08T22:35:09.406Z,90.10
2023-01-08T22:37:38.629Z,90.00
2023-01-08T22:40:08.297Z,90.10
2023-01-08T22:42:37.360Z,90.00
2023-01-08T22:45:07.323Z,90.10
2023-01-08T22:47:36.446Z,90.00
2023-01-08T22:50:06.510Z,90.10
2023-01-08T22:52:35.606Z,90.10
2023-01-08T22:55:04.786Z,90.00
2023-01-08T22:57:33.929Z,90.10
2023-01-08T23:00:03.376Z,90.10
2023-01-08T23:02:35.527Z,90.10
2023-01-08T23:05:05.960Z,90.10
2023-01-08T23:07:35.257Z,90.40
2023-01-08T23:10:04.484Z,90.20
2023-01-08T23:12:35.356Z,90.20
2023-01-08T23:15:05.396Z,90.30
2023-01-08T23:17:44.547Z,90.20
2023-01-08T23:20:21.671Z,90.30
2023-01-08T23:22:51.309Z,90.40
2023-01-08T23:25:20.463Z,90.50
2023-01-08T23:27:49.641Z,90.50
2023-01-08T23:30:19.080Z,90.60
2023-01-08T23:32:48.165Z,90.60
2023-01-08T23:35:17.382Z,90.80
2023-01-08T23:37:46.416Z,90.80
2023-01-08T23:40:15.903Z,90.80
2023-01-08T23:42:45.050Z,90.80
2023-01-08T23:45:14.089Z,90.80
2023-01-08T23:47:43.264Z,91.00
2023-01-08T23:50:13.424Z,91.00
2023-01-08T23:52:42.498Z,91.10
2023-01-08T23:55:11.776Z,91.20
2023-01-08T23:57:40.877Z,91.10
